Time;durP1;ratioP1;P1;durP2;ratioP2;P2;SDS_P1;SDS_P2;PMS_P1;PMS_P2;Temp;Humidity;BMP_temperature;BMP_pressure;BME280_temperature;BME280_humidity;BME280_pressure;Samples;Min_cycle;Max_cycle;Signal;HPM_P1;HPM_P2
2022/07/20 00:02:21;;;;;;;6.30;1.33;;;;;;;;;;5327279;28;20015;-72
2022/07/20 00:04:52;;;;;;;7.93;1.30;;;;;;;;;;5327608;28;20292;-71
2022/07/20 00:07:24;;;;;;;4.45;1.25;;;;;;;;;;5326180;28;20008;-72
2022/07/20 00:12:44;;;;;;;6.00;1.13;;;;;;;;;;5326270;28;20028;-71
2022/07/20 00:15:15;;;;;;;16.13;1.20;;;;;;;;;;5327166;28;20020;-71
2022/07/20 00:17:47;;;;;;;6.17;1.50;;;;;;;;;;5326833;28;20024;-72
2022/07/20 00:20:18;;;;;;;6.20;1.00;;;;;;;;;;5325717;28;20304;-72
2022/07/20 00:22:49;;;;;;;5.57;1.00;;;;;;;;;;5326803;28;20069;-72
2022/07/20 00:25:20;;;;;;;6.87;0.90;;;;;;;;;;5326615;28;20258;-72
2022/07/20 00:27:51;;;;;;;8.77;1.17;;;;;;;;;;5326146;28;20277;-71
2022/07/20 00:30:23;;;;;;;8.13;1.33;;;;;;;;;;5326261;28;20031;-72
2022/07/20 00:32:54;;;;;;;9.98;1.20;;;;;;;;;;5326770;28;20028;-71
2022/07/20 00:35:25;;;;;;;7.97;1.02;;;;;;;;;;5325595;28;20011;-72
2022/07/20 00:37:56;;;;;;;5.20;1.20;;;;;;;;;;5326793;28;20019;-71
2022/07/20 00:40:27;;;;;;;9.13;1.13;;;;;;;;;;5325563;28;20286;-71
2022/07/20 00:42:59;;;;;;;4.33;1.17;;;;;;;;;;5326701;28;20020;-71
2022/07/20 00:45:30;;;;;;;6.57;1.27;;;;;;;;;;5326066;28;20539;-70
2022/07/20 00:48:01;;;;;;;7.05;1.10;;;;;;;;;;5324618;28;20020;-71
2022/07/20 00:50:33;;;;;;;5.00;1.15;;;;;;;;;;5326275;28;20110;-70
2022/07/20 00:53:04;;;;;;;5.63;1.13;;;;;;;;;;5326352;28;20028;-72
2022/07/20 00:55:35;;;;;;;11.75;1.58;;;;;;;;;;5325500;28;20144;-71
2022/07/20 00:58:06;;;;;;;6.43;1.20;;;;;;;;;;5326099;28;20046;-71
2022/07/20 01:00:38;;;;;;;6.63;1.52;;;;;;;;;;5326115;28;20432;-70
2022/07/20 01:03:09;;;;;;;9.75;2.70;;;;;;;;;;5325176;28;20348;-71
2022/07/20 01:05:40;;;;;;;5.60;1.20;;;;;;;;;;5325866;28;20446;-71
2022/07/20 01:08:11;;;;;;;5.63;1.17;;;;;;;;;;5325916;28;20015;-71
2022/07/20 01:10:43;;;;;;;5.88;1.25;;;;;;;;;;5324832;28;20032;-71
2022/07/20 01:13:14;;;;;;;7.10;1.27;;;;;;;;;;5325977;28;20046;-71
2022/07/20 01:15:45;;;;;;;6.60;1.90;;;;;;;;;;5325069;28;20093;-71
2022/07/20 01:18:17;;;;;;;10.48;1.27;;;;;;;;;;5325769;28;20051;-70
2022/07/20 01:20:48;;;;;;;4.67;1.00;;;;;;;;;;5325574;28;20028;-70
2022/07/20 01:23:20;;;;;;;7.35;1.17;;;;;;;;;;5324352;28;20350;-71
2022/07/20 01:25:51;;;;;;;8.82;1.85;;;;;;;;;;5325750;28;20023;-71
2022/07/20 01:28:22;;;;;;;10.38;1.70;;;;;;;;;;5325085;28;20379;-71
2022/07/20 01:30:54;;;;;;;7.90;1.35;;;;;;;;;;5324925;28;20066;-71
2022/07/20 01:33:25;;;;;;;4.13;1.15;;;;;;;;;;5324903;28;20023;-71
2022/07/20 01:35:56;;;;;;;9.70;1.50;;;;;;;;;;5325485;28;20068;-72
2022/07/20 01:38:27;;;;;;;7.35;1.20;;;;;;;;;;5324124;28;20019;-72
2022/07/20 01:40:58;;;;;;;7.20;1.67;;;;;;;;;;5325152;28;20063;-71
2022/07/20 01:43:29;;;;;;;9.57;1.30;;;;;;;;;;5324994;28;20073;-71
2022/07/20 01:46:01;;;;;;;11.50;1.57;;;;;;;;;;5324434;28;20257;-71
2022/07/20 01:48:32;;;;;;;9.37;1.40;;;;;;;;;;5325376;28;20261;-71
2022/07/20 01:51:03;;;;;;;8.00;1.70;;;;;;;;;;5324265;28;20077;-71
2022/07/20 01:53:34;;;;;;;3.63;1.20;;;;;;;;;;5325054;28;20019;-71
2022/07/20 01:56:06;;;;;;;6.57;1.30;;;;;;;;;;5324945;28;20076;-71
2022/07/20 01:58:37;;;;;;;3.72;1.25;;;;;;;;;;5324008;28;20022;-71
2022/07/20 02:01:08;;;;;;;6.70;1.38;;;;;;;;;;5324349;28;20011;-71
2022/07/20 02:03:40;;;;;;;8.77;1.73;;;;;;;;;;5324948;28;20020;-72
2022/07/20 02:06:11;;;;;;;5.00;1.30;;;;;;;;;;5324132;28;20443;-71
2022/07/20 02:08:42;;;;;;;3.83;1.10;;;;;;;;;;5324822;28;20026;-71
2022/07/20 02:11:14;;;;;;;7.63;1.50;;;;;;;;;;5324958;28;20041;-71
2022/07/20 02:13:45;;;;;;;7.50;1.67;;;;;;;;;;5323710;28;20012;-72
2022/07/20 02:16:16;;;;;;;7.43;1.80;;;;;;;;;;5324784;28;20289;-71
2022/07/20 02:18:49;;;;;;;12.55;3.30;;;;;;;;;;5323738;28;20018;-72
2022/07/20 02:21:20;;;;;;;11.50;3.25;;;;;;;;;;5324186;28;20111;-72
2022/07/20 02:23:52;;;;;;;8.77;3.58;;;;;;;;;;5324594;28;20228;-72
2022/07/20 02:26:23;;;;;;;10.73;4.28;;;;;;;;;;5323196;28;20024;-72
2022/07/20 02:28:54;;;;;;;9.05;4.28;;;;;;;;;;5324799;28;20543;-72
2022/07/20 02:31:26;;;;;;;8.20;4.55;;;;;;;;;;5323622;28;20028;-71
2022/07/20 02:33:57;;;;;;;17.47;5.30;;;;;;;;;;5323803;28;20099;-72
2022/07/20 02:36:28;;;;;;;14.57;6.80;;;;;;;;;;5324148;28;20285;-72
2022/07/20 02:38:59;;;;;;;14.87;7.17;;;;;;;;;;5324224;28;20282;-72
2022/07/20 02:41:32;;;;;;;16.42;7.18;;;;;;;;;;5323386;28;20310;-72
2022/07/20 02:44:04;;;;;;;18.00;8.63;;;;;;;;;;5324024;28;20020;-71
2022/07/20 02:46:35;;;;;;;19.15;9.45;;;;;;;;;;5324206;28;20030;-71
2022/07/20 02:49:07;;;;;;;17.50;10.73;;;;;;;;;;5323261;28;20122;-71
2022/07/20 02:51:38;;;;;;;16.45;10.50;;;;;;;;;;5323998;28;20111;-72
2022/07/20 02:54:09;;;;;;;21.87;11.80;;;;;;;;;;5323293;28;20040;-72
2022/07/20 02:56:40;;;;;;;15.63;11.13;;;;;;;;;;5323905;28;20271;-71
2022/07/20 02:59:11;;;;;;;22.67;13.13;;;;;;;;;;5323754;28;20023;-71
2022/07/20 03:01:43;;;;;;;20.17;12.40;;;;;;;;;;5323179;28;20374;-71
2022/07/20 03:04:14;;;;;;;24.73;13.40;;;;;;;;;;5323740;28;20024;-72
2022/07/20 03:06:45;;;;;;;18.23;14.18;;;;;;;;;;5323784;28;20016;-72
2022/07/20 03:09:16;;;;;;;21.02;14.07;;;;;;;;;;5322574;28;20038;-72
2022/07/20 03:11:47;;;;;;;25.98;14.10;;;;;;;;;;5323072;28;20372;-72
2022/07/20 03:14:18;;;;;;;24.60;14.57;;;;;;;;;;5323391;28;20328;-72
2022/07/20 03:16:51;;;;;;;26.33;16.08;;;;;;;;;;5323047;28;20269;-71
2022/07/20 03:19:22;;;;;;;24.48;16.30;;;;;;;;;;5323166;28;20015;-72
2022/07/20 03:21:53;;;;;;;27.77;15.70;;;;;;;;;;5323713;28;20020;-72
2022/07/20 03:24:24;;;;;;;27.13;17.53;;;;;;;;;;5322013;28;20297;-72
2022/07/20 03:26:56;;;;;;;23.02;16.92;;;;;;;;;;5323794;28;20027;-72
2022/07/20 03:29:27;;;;;;;28.33;17.08;;;;;;;;;;5322080;28;20023;-72
2022/07/20 03:31:58;;;;;;;26.53;17.87;;;;;;;;;;5323526;28;20382;-71
2022/07/20 03:34:30;;;;;;;27.77;17.73;;;;;;;;;;5323265;28;20273;-72
2022/07/20 03:37:01;;;;;;;26.15;17.27;;;;;;;;;;5322601;28;20450;-71
2022/07/20 03:39:32;;;;;;;28.60;17.53;;;;;;;;;;5323344;28;20461;-71
2022/07/20 03:42:03;;;;;;;24.20;17.97;;;;;;;;;;5323169;28;20273;-72
2022/07/20 03:44:34;;;;;;;24.67;18.47;;;;;;;;;;5322786;28;20270;-72
2022/07/20 03:47:06;;;;;;;29.73;19.45;;;;;;;;;;5323304;28;20828;-71
2022/07/20 03:49:37;;;;;;;28.35;19.25;;;;;;;;;;5322932;28;20024;-71
2022/07/20 03:52:08;;;;;;;36.63;20.83;;;;;;;;;;5322472;28;20064;-71
2022/07/20 03:54:40;;;;;;;26.30;20.38;;;;;;;;;;5323037;28;20297;-72
2022/07/20 03:57:11;;;;;;;32.90;19.77;;;;;;;;;;5323038;28;20023;-71
2022/07/20 03:59:42;;;;;;;31.92;20.17;;;;;;;;;;5322332;28;20269;-71
2022/07/20 04:02:13;;;;;;;32.92;21.70;;;;;;;;;;5323063;28;20051;-73
2022/07/20 04:04:44;;;;;;;26.53;20.47;;;;;;;;;;5322244;28;20027;-71
2022/07/20 04:07:16;;;;;;;33.70;21.03;;;;;;;;;;5322819;28;20280;-72
2022/07/20 04:09:47;;;;;;;30.90;20.90;;;;;;;;;;5322879;28;20332;-72
2022/07/20 04:12:23;;;;;;;29.92;19.45;;;;;;;;;;5322029;28;20779;-72
2022/07/20 04:14:54;;;;;;;27.77;21.20;;;;;;;;;;5323557;28;20020;-72
2022/07/20 04:17:25;;;;;;;29.50;20.03;;;;;;;;;;5322592;28;20012;-72
2022/07/20 04:19:56;;;;;;;29.92;19.52;;;;;;;;;;5322336;28;20273;-72
2022/07/20 04:22:27;;;;;;;28.50;18.73;;;;;;;;;;5323207;28;20100;-72
2022/07/20 04:24:58;;;;;;;26.00;19.25;;;;;;;;;;5327296;28;20760;-71
2022/07/20 04:27:30;;;;;;;24.92;17.98;;;;;;;;;;5326017;28;20045;-72
2022/07/20 04:30:01;;;;;;;30.63;19.97;;;;;;;;;;5326578;28;20016;-72
2022/07/20 04:32:32;;;;;;;27.43;17.80;;;;;;;;;;5325685;28;20445;-73
2022/07/20 04:35:03;;;;;;;25.33;18.07;;;;;;;;;;5326789;28;20625;-72
2022/07/20 04:37:35;;;;;;;26.77;18.65;;;;;;;;;;5326562;27;20355;-71
2022/07/20 04:40:06;;;;;;;26.38;17.85;;;;;;;;;;5325825;27;20459;-71
2022/07/20 04:42:37;;;;;;;26.92;18.00;;;;;;;;;;5326576;28;20031;-71
2022/07/20 04:45:09;;;;;;;21.05;15.95;;;;;;;;;;5326442;28;20047;-72
2022/07/20 04:47:40;;;;;;;27.60;17.35;;;;;;;;;;5325953;28;20016;-72
2022/07/20 04:50:12;;;;;;;22.27;15.63;;;;;;;;;;5326432;28;20024;-72
2022/07/20 04:52:43;;;;;;;22.15;16.35;;;;;;;;;;5326459;28;20265;-72
2022/07/20 04:55:14;;;;;;;25.42;16.20;;;;;;;;;;5325493;28;20062;-72
2022/07/20 04:57:46;;;;;;;19.65;15.63;;;;;;;;;;5326257;28;20031;-72
2022/07/20 05:00:17;;;;;;;22.20;16.38;;;;;;;;;;5326467;28;20029;-72
2022/07/20 05:02:48;;;;;;;22.00;16.48;;;;;;;;;;5325421;28;20016;-72
2022/07/20 05:05:19;;;;;;;22.77;15.03;;;;;;;;;;5325924;28;20022;-72
2022/07/20 05:07:50;;;;;;;23.35;15.57;;;;;;;;;;5325430;28;20099;-72
2022/07/20 05:10:21;;;;;;;25.42;15.40;;;;;;;;;;5325762;28;20028;-72
2022/07/20 05:12:53;;;;;;;22.87;15.20;;;;;;;;;;5326263;28;20011;-72
2022/07/20 05:15:24;;;;;;;21.88;14.32;;;;;;;;;;5324654;28;20748;-72
2022/07/20 05:17:55;;;;;;;22.80;14.93;;;;;;;;;;5326119;28;20103;-72
2022/07/20 05:20:26;;;;;;;20.17;14.53;;;;;;;;;;5325306;28;20016;-72
2022/07/20 05:22:57;;;;;;;20.98;14.52;;;;;;;;;;5325045;28;20116;-72
2022/07/20 05:25:28;;;;;;;21.95;14.30;;;;;;;;;;5325536;28;20031;-71
2022/07/20 05:28:00;;;;;;;22.07;14.63;;;;;;;;;;5325590;28;20033;-72
2022/07/20 05:30:31;;;;;;;17.38;12.90;;;;;;;;;;5324435;28;20803;-72
2022/07/20 05:33:02;;;;;;;21.23;14.45;;;;;;;;;;5325252;28;20603;-72
2022/07/20 05:35:33;;;;;;;21.05;14.32;;;;;;;;;;5325238;28;20076;-72
2022/07/20 05:38:05;;;;;;;21.00;12.80;;;;;;;;;;5324539;28;20020;-72
2022/07/20 05:40:36;;;;;;;23.30;14.30;;;;;;;;;;5325491;28;20277;-71
2022/07/20 05:43:07;;;;;;;27.25;14.50;;;;;;;;;;5324495;28;20305;-72
2022/07/20 05:45:38;;;;;;;18.85;13.07;;;;;;;;;;5324977;28;20497;-72
2022/07/20 05:48:11;;;;;;;22.00;12.83;;;;;;;;;;5325123;28;20016;-72
2022/07/20 05:50:43;;;;;;;20.45;13.55;;;;;;;;;;5324377;28;20473;-71
2022/07/20 05:53:14;;;;;;;19.00;12.43;;;;;;;;;;5325034;28;20023;-71
2022/07/20 05:55:46;;;;;;;21.33;11.98;;;;;;;;;;5325139;28;20019;-72
2022/07/20 05:58:17;;;;;;;17.42;11.23;;;;;;;;;;5324573;28;20015;-72
2022/07/20 06:00:48;;;;;;;20.05;11.15;;;;;;;;;;5325059;28;20039;-72
2022/07/20 06:03:19;;;;;;;19.60;11.80;;;;;;;;;;5324792;28;20104;-72
2022/07/20 06:05:51;;;;;;;16.00;10.00;;;;;;;;;;5324417;28;20015;-72
2022/07/20 06:08:22;;;;;;;15.70;10.20;;;;;;;;;;5324512;28;20020;-72
2022/07/20 06:10:53;;;;;;;15.88;9.82;;;;;;;;;;5324402;28;20057;-72
2022/07/20 06:13:24;;;;;;;18.33;9.80;;;;;;;;;;5324462;28;20015;-72
2022/07/20 06:15:55;;;;;;;15.50;9.85;;;;;;;;;;5325148;28;20775;-71
2022/07/20 06:18:26;;;;;;;14.63;9.13;;;;;;;;;;5323491;28;20016;-72
2022/07/20 06:20:58;;;;;;;13.97;10.03;;;;;;;;;;5324752;28;20020;-71
2022/07/20 06:23:29;;;;;;;17.53;9.70;;;;;;;;;;5324034;28;20297;-72
2022/07/20 06:26:00;;;;;;;16.63;9.80;;;;;;;;;;5323637;28;20447;-73
2022/07/20 06:28:31;;;;;;;16.77;9.70;;;;;;;;;;5324400;28;20020;-70
2022/07/20 06:31:03;;;;;;;15.57;10.03;;;;;;;;;;5323957;28;20067;-71
2022/07/20 06:33:34;;;;;;;20.38;10.98;;;;;;;;;;5323529;28;20451;-71
2022/07/20 06:36:05;;;;;;;17.40;10.00;;;;;;;;;;5324290;28;20015;-71
2022/07/20 06:38:36;;;;;;;19.83;9.65;;;;;;;;;;5324099;28;20093;-71
2022/07/20 06:41:08;;;;;;;17.73;9.23;;;;;;;;;;5323517;28;20494;-71
2022/07/20 06:43:39;;;;;;;17.13;9.30;;;;;;;;;;5324121;28;20012;-71
2022/07/20 06:46:10;;;;;;;14.00;8.83;;;;;;;;;;5322163;28;20015;-71
2022/07/20 06:48:41;;;;;;;14.57;8.85;;;;;;;;;;5323976;28;20617;-71
2022/07/20 06:51:12;;;;;;;13.52;8.65;;;;;;;;;;5319009;28;20023;-71
2022/07/20 06:53:43;;;;;;;18.63;10.30;;;;;;;;;;5322439;28;20023;-72
2022/07/20 06:56:15;;;;;;;13.20;8.67;;;;;;;;;;5323451;28;20016;-72
2022/07/20 06:58:46;;;;;;;14.33;8.77;;;;;;;;;;5324132;28;20269;-72
2022/07/20 07:01:17;;;;;;;14.00;8.95;;;;;;;;;;5322599;28;20273;-71
2022/07/20 07:03:48;;;;;;;16.33;8.68;;;;;;;;;;5323821;28;20012;-71
2022/07/20 07:06:19;;;;;;;16.08;8.52;;;;;;;;;;5323612;28;20040;-72
2022/07/20 07:08:50;;;;;;;15.07;8.80;;;;;;;;;;5323109;28;20015;-71
2022/07/20 07:11:22;;;;;;;16.23;9.33;;;;;;;;;;5322837;28;20058;-70
2022/07/20 07:13:53;;;;;;;17.13;8.50;;;;;;;;;;5324064;28;20261;-69
2022/07/20 07:16:25;;;;;;;15.83;8.63;;;;;;;;;;5322288;28;20273;-69
2022/07/20 07:18:56;;;;;;;17.67;9.48;;;;;;;;;;5323838;28;20258;-69
2022/07/20 07:21:27;;;;;;;18.92;8.52;;;;;;;;;;5322392;28;20446;-72
2022/07/20 07:23:59;;;;;;;14.17;8.50;;;;;;;;;;5323424;28;20045;-71
2022/07/20 07:26:30;;;;;;;16.65;8.85;;;;;;;;;;5323069;28;20015;-71
2022/07/20 07:29:01;;;;;;;12.33;7.50;;;;;;;;;;5322440;28;20425;-71
2022/07/20 07:31:32;;;;;;;18.00;8.07;;;;;;;;;;5323121;28;20331;-72
2022/07/20 07:34:04;;;;;;;14.40;7.40;;;;;;;;;;5323416;28;20061;-71
2022/07/20 07:36:35;;;;;;;12.55;7.30;;;;;;;;;;5322643;28;20034;-71
2022/07/20 07:39:06;;;;;;;12.30;7.22;;;;;;;;;;5323192;28;20022;-71
2022/07/20 07:41:37;;;;;;;17.23;7.67;;;;;;;;;;5323151;28;20547;-72
2022/07/20 07:44:09;;;;;;;12.73;6.90;;;;;;;;;;5322229;28;20457;-72
2022/07/20 07:46:40;;;;;;;13.32;7.47;;;;;;;;;;5323382;28;20047;-72
2022/07/20 07:49:11;;;;;;;12.77;7.40;;;;;;;;;;5323252;28;20024;-73
2022/07/20 07:51:42;;;;;;;10.73;7.05;;;;;;;;;;5322181;28;20402;-73
2022/07/20 07:54:14;;;;;;;17.50;7.10;;;;;;;;;;5322978;28;20458;-75
2022/07/20 07:56:45;;;;;;;12.00;6.23;;;;;;;;;;5322400;28;20273;-73
2022/07/20 07:59:16;;;;;;;10.17;5.80;;;;;;;;;;5327199;28;20265;-72
2022/07/20 08:01:47;;;;;;;11.03;6.03;;;;;;;;;;5327528;28;20333;-72
2022/07/20 08:04:18;;;;;;;14.73;5.90;;;;;;;;;;5326336;28;20269;-73
2022/07/20 08:06:50;;;;;;;12.17;5.70;;;;;;;;;;5327739;28;20284;-73
2022/07/20 08:09:22;;;;;;;10.63;5.13;;;;;;;;;;5326920;28;20027;-73
2022/07/20 08:11:53;;;;;;;12.25;5.53;;;;;;;;;;5326853;28;20080;-75
2022/07/20 08:14:24;;;;;;;10.57;5.83;;;;;;;;;;5326793;28;20015;-75
2022/07/20 08:16:55;;;;;;;8.63;5.07;;;;;;;;;;5327291;28;20284;-75
2022/07/20 08:19:26;;;;;;;14.53;5.87;;;;;;;;;;5325982;28;20199;-75
2022/07/20 08:21:57;;;;;;;12.30;6.03;;;;;;;;;;5327346;28;20043;-75
2022/07/20 08:24:29;;;;;;;11.15;5.68;;;;;;;;;;5326140;28;20300;-75
2022/07/20 08:27:00;;;;;;;13.07;5.68;;;;;;;;;;5326557;28;20031;-75
2022/07/20 08:29:31;;;;;;;11.97;6.10;;;;;;;;;;5326512;28;20047;-75
2022/07/20 08:32:02;;;;;;;14.05;6.15;;;;;;;;;;5326031;28;20119;-75
2022/07/20 08:34:34;;;;;;;8.45;5.32;;;;;;;;;;5326686;28;20016;-75
2022/07/20 08:37:05;;;;;;;9.03;5.50;;;;;;;;;;5326805;28;20099;-75
2022/07/20 08:39:36;;;;;;;23.93;6.77;;;;;;;;;;5325904;28;20258;-75
2022/07/20 08:42:08;;;;;;;14.50;5.93;;;;;;;;;;5326672;28;20269;-75
2022/07/20 08:44:43;;;;;;;15.98;5.32;;;;;;;;;;5326520;28;20015;-75
2022/07/20 08:47:14;;;;;;;14.38;6.03;;;;;;;;;;5325915;28;20026;-75
2022/07/20 08:49:47;;;;;;;15.43;5.95;;;;;;;;;;5326291;28;20011;-74
2022/07/20 08:52:18;;;;;;;11.05;5.35;;;;;;;;;;5326267;28;20055;-75
2022/07/20 08:54:49;;;;;;;12.47;5.30;;;;;;;;;;5325918;28;20096;-75
2022/07/20 08:57:20;;;;;;;12.00;5.60;;;;;;;;;;5325990;28;20395;-75
2022/07/20 08:59:51;;;;;;;9.90;5.27;;;;;;;;;;5326087;28;20102;-75
2022/07/20 09:02:23;;;;;;;8.63;6.30;;;;;;;;;;5326056;28;20361;-75
2022/07/20 09:04:58;;;;;;;10.57;5.75;;;;;;;;;;5326727;28;20035;-76
2022/07/20 09:07:46;;;;;;;13.57;6.03;;;;;;;;;;5324989;28;20022;-75
2022/07/20 09:10:37;;;;;;;17.38;6.07;;;;;;;;;;5325279;28;20115;-75
2022/07/20 09:13:12;;;;;;;17.88;5.93;;;;;;;;;;5325748;28;20040;-75
2022/07/20 09:15:44;;;;;;;13.15;5.80;;;;;;;;;;5325810;28;20024;-75
2022/07/20 09:18:15;;;;;;;11.17;5.90;;;;;;;;;;5326145;28;20106;-74
2022/07/20 09:20:48;;;;;;;11.83;5.57;;;;;;;;;;5325320;28;20034;-75
2022/07/20 09:23:33;;;;;;;10.98;5.60;;;;;;;;;;5325336;28;20342;-75
2022/07/20 09:26:05;;;;;;;11.40;5.50;;;;;;;;;;5325590;28;20024;-75
2022/07/20 09:28:49;;;;;;;14.68;6.43;;;;;;;;;;5325133;28;20015;-76
2022/07/20 09:31:29;;;;;;;12.10;6.20;;;;;;;;;;5325350;28;20033;-75
2022/07/20 09:34:03;;;;;;;15.82;6.30;;;;;;;;;;5325540;28;20023;-76
2022/07/20 09:36:35;;;;;;;12.63;6.07;;;;;;;;;;5324710;28;20008;-75
2022/07/20 09:39:11;;;;;;;13.02;5.93;;;;;;;;;;5325755;28;20024;-76
2022/07/20 09:41:43;;;;;;;10.38;5.47;;;;;;;;;;5325544;28;20020;-76
2022/07/20 09:44:22;;;;;;;16.83;5.68;;;;;;;;;;5324673;28;20498;-75
2022/07/20 09:46:54;;;;;;;9.40;4.95;;;;;;;;;;5325648;28;20228;-75
2022/07/20 09:49:29;;;;;;;8.68;4.72;;;;;;;;;;5324160;28;20106;-75
2022/07/20 09:52:01;;;;;;;12.18;4.78;;;;;;;;;;5324892;28;20543;-75
2022/07/20 09:54:32;;;;;;;9.73;5.35;;;;;;;;;;5325195;28;20106;-75
2022/07/20 09:57:05;;;;;;;13.10;4.65;;;;;;;;;;5324415;28;20073;-75
2022/07/20 09:59:36;;;;;;;11.38;4.57;;;;;;;;;;5325090;28;20126;-76
2022/07/20 10:02:08;;;;;;;12.98;4.38;;;;;;;;;;5325359;28;20390;-76
2022/07/20 10:04:39;;;;;;;9.95;4.20;;;;;;;;;;5324242;28;20112;-76
2022/07/20 10:07:10;;;;;;;9.37;4.23;;;;;;;;;;5324793;28;20498;-75
2022/07/20 10:09:42;;;;;;;8.02;3.67;;;;;;;;;;5324855;28;20453;-75
2022/07/20 10:12:13;;;;;;;8.43;4.03;;;;;;;;;;5323873;28;20038;-76
2022/07/20 10:14:46;;;;;;;10.30;4.68;;;;;;;;;;5324765;28;20019;-75
2022/07/20 10:17:17;;;;;;;9.85;4.10;;;;;;;;;;5323918;28;20099;-75
2022/07/20 10:19:48;;;;;;;11.15;4.60;;;;;;;;;;5324674;27;20446;-75
2022/07/20 10:22:20;;;;;;;7.60;4.60;;;;;;;;;;5324002;28;20016;-76
2022/07/20 10:25:21;;;;;;;11.50;5.17;;;;;;;;;;5324358;28;20471;-75
2022/07/20 10:27:52;;;;;;;10.45;4.10;;;;;;;;;;5306995;28;20098;-75
2022/07/20 10:30:23;;;;;;;12.50;4.95;;;;;;;;;;5324087;28;20173;-76
2022/07/20 10:32:57;;;;;;;8.23;4.43;;;;;;;;;;5323798;28;20015;-76
2022/07/20 10:35:29;;;;;;;7.20;3.67;;;;;;;;;;5323953;28;20012;-76
2022/07/20 10:38:00;;;;;;;10.00;2.95;;;;;;;;;;5324017;27;20077;-76
2022/07/20 10:40:31;;;;;;;10.40;3.60;;;;;;;;;;5323197;28;20051;-76
2022/07/20 10:43:06;;;;;;;9.45;4.15;;;;;;;;;;5324054;28;20462;-76
2022/07/20 10:45:37;;;;;;;6.82;4.38;;;;;;;;;;5323200;28;20038;-76
2022/07/20 10:48:11;;;;;;;7.47;3.47;;;;;;;;;;5324144;28;20016;-75
2022/07/20 10:50:49;;;;;;;11.00;3.45;;;;;;;;;;5324028;28;20039;-75
2022/07/20 10:53:23;;;;;;;7.10;3.05;;;;;;;;;;5322913;28;20094;-76
2022/07/20 10:55:58;;;;;;;6.47;3.45;;;;;;;;;;5324292;28;20034;-76
2022/07/20 10:58:41;;;;;;;5.65;3.17;;;;;;;;;;5324043;28;20459;-76
2022/07/20 11:01:13;;;;;;;7.20;3.83;;;;;;;;;;5323236;28;20015;-75
2022/07/20 11:03:45;;;;;;;8.07;3.45;;;;;;;;;;5324371;28;20016;-75
2022/07/20 11:06:18;;;;;;;12.77;4.57;;;;;;;;;;5323225;28;20016;-76
2022/07/20 11:08:59;;;;;;;9.45;4.00;;;;;;;;;;5324355;28;20026;-76
2022/07/20 11:11:32;;;;;;;7.55;3.70;;;;;;;;;;5323702;28;20493;-76
2022/07/20 11:14:05;;;;;;;8.32;3.22;;;;;;;;;;5322987;28;20014;-75
2022/07/20 11:16:37;;;;;;;7.47;3.95;;;;;;;;;;5323743;28;20023;-75
2022/07/20 11:19:08;;;;;;;6.70;3.40;;;;;;;;;;5323514;28;20023;-75
2022/07/20 11:21:43;;;;;;;5.53;3.17;;;;;;;;;;5322971;28;20383;-75
2022/07/20 11:24:22;;;;;;;11.93;3.70;;;;;;;;;;5323388;28;20289;-75
2022/07/20 11:26:54;;;;;;;10.15;3.55;;;;;;;;;;5323839;28;20032;-75
2022/07/20 11:29:27;;;;;;;7.63;3.35;;;;;;;;;;5322229;28;20016;-75
2022/07/20 11:32:06;;;;;;;8.90;3.10;;;;;;;;;;5322634;28;20081;-75
2022/07/20 11:34:45;;;;;;;7.07;3.08;;;;;;;;;;5322879;28;20031;-75
2022/07/20 11:37:17;;;;;;;6.68;2.80;;;;;;;;;;5323221;28;20023;-76
2022/07/20 11:39:49;;;;;;;5.70;3.00;;;;;;;;;;5323129;28;20023;-75
2022/07/20 11:42:20;;;;;;;4.73;2.27;;;;;;;;;;5322089;28;20030;-74
2022/07/20 11:44:59;;;;;;;3.40;2.13;;;;;;;;;;5319036;28;20828;-74
2022/07/20 11:47:30;;;;;;;6.53;2.10;;;;;;;;;;5322482;28;20265;-74
2022/07/20 11:50:03;;;;;;;4.95;2.70;;;;;;;;;;5322215;28;20466;-74
2022/07/20 11:52:38;;;;;;;2.92;1.50;;;;;;;;;;5323059;28;20032;-74
2022/07/20 11:55:09;;;;;;;2.92;1.70;;;;;;;;;;5322849;28;20470;-75
2022/07/20 11:57:40;;;;;;;2.90;1.20;;;;;;;;;;5320959;28;20024;-73
2022/07/20 12:00:14;;;;;;;3.77;1.33;;;;;;;;;;5322580;28;20280;-73
2022/07/20 12:02:45;;;;;;;4.25;1.30;;;;;;;;;;5322071;28;20265;-74
2022/07/20 12:05:16;;;;;;;5.22;1.30;;;;;;;;;;5323118;28;20020;-74
2022/07/20 12:10:40;;;;;;;3.88;1.50;;;;;;;;;;5321723;28;20351;-74
2022/07/20 12:13:13;;;;;;;5.18;1.50;;;;;;;;;;5323013;28;20023;-74
2022/07/20 12:15:54;;;;;;;3.67;1.27;;;;;;;;;;5322644;28;20027;-73
2022/07/20 12:18:36;;;;;;;3.20;1.30;;;;;;;;;;5321699;28;20011;-73
2022/07/20 12:21:09;;;;;;;3.72;1.15;;;;;;;;;;5322606;28;20027;-73
2022/07/20 12:23:41;;;;;;;3.47;1.42;;;;;;;;;;5321696;28;20059;-74
2022/07/20 12:26:26;;;;;;;3.40;1.25;;;;;;;;;;5322850;28;20023;-75
2022/07/20 12:29:16;;;;;;;3.22;1.00;;;;;;;;;;5323283;28;20016;-73
2022/07/20 12:32:00;;;;;;;4.13;1.25;;;;;;;;;;5321967;28;20028;-73
2022/07/20 12:34:48;;;;;;;2.90;1.13;;;;;;;;;;5322945;28;20466;-74
2022/07/20 12:37:20;;;;;;;5.32;1.45;;;;;;;;;;5322564;28;20019;-73
2022/07/20 12:39:54;;;;;;;5.65;1.30;;;;;;;;;;5322008;28;20379;-75
2022/07/20 12:42:27;;;;;;;3.85;1.25;;;;;;;;;;5322400;28;20020;-74
2022/07/20 12:45:03;;;;;;;4.50;1.83;;;;;;;;;;5323889;28;20110;-74
2022/07/20 12:47:34;;;;;;;5.75;1.73;;;;;;;;;;5326591;28;20012;-75
2022/07/20 12:50:05;;;;;;;4.93;1.70;;;;;;;;;;5326118;28;20026;-75
2022/07/20 12:52:37;;;;;;;3.65;1.80;;;;;;;;;;5325779;28;20020;-74
2022/07/20 12:55:08;;;;;;;3.85;2.08;;;;;;;;;;5326240;28;20019;-75
2022/07/20 12:57:39;;;;;;;4.32;1.85;;;;;;;;;;5326432;28;20156;-74
2022/07/20 13:00:11;;;;;;;4.63;2.00;;;;;;;;;;5325666;28;20016;-75
2022/07/20 13:02:42;;;;;;;5.30;2.28;;;;;;;;;;5325648;28;20020;-74
2022/07/20 13:05:13;;;;;;;3.00;1.53;;;;;;;;;;5325543;28;20012;-74
2022/07/20 13:07:46;;;;;;;6.20;2.30;;;;;;;;;;5325353;28;20022;-74
2022/07/20 13:10:17;;;;;;;5.15;1.65;;;;;;;;;;5326033;28;20028;-75
2022/07/20 13:12:49;;;;;;;7.00;2.13;;;;;;;;;;5326143;28;20494;-73
2022/07/20 13:15:21;;;;;;;4.28;2.08;;;;;;;;;;5324998;28;20378;-73
2022/07/20 13:17:52;;;;;;;3.88;1.70;;;;;;;;;;5326200;28;20099;-72
2022/07/20 13:20:23;;;;;;;3.87;2.20;;;;;;;;;;5324890;28;20023;-73
2022/07/20 13:22:55;;;;;;;5.93;2.03;;;;;;;;;;5325565;28;20131;-72
2022/07/20 13:25:26;;;;;;;5.70;2.50;;;;;;;;;;5325529;28;20028;-73
2022/07/20 13:27:58;;;;;;;4.00;1.80;;;;;;;;;;5325152;28;20262;-73
2022/07/20 13:30:30;;;;;;;5.95;2.75;;;;;;;;;;5325436;28;20369;-71
2022/07/20 13:33:01;;;;;;;5.65;2.58;;;;;;;;;;5325471;28;20032;-71
2022/07/20 13:35:32;;;;;;;5.10;2.67;;;;;;;;;;5324977;28;20016;-72
2022/07/20 13:38:03;;;;;;;4.97;2.70;;;;;;;;;;5325432;28;20258;-72
2022/07/20 13:40:34;;;;;;;4.97;2.75;;;;;;;;;;5325313;28;20273;-72
2022/07/20 13:43:06;;;;;;;4.37;2.83;;;;;;;;;;5324821;28;20012;-72
2022/07/20 13:45:37;;;;;;;7.40;3.03;;;;;;;;;;5325506;28;20269;-71
2022/07/20 13:48:08;;;;;;;7.63;2.85;;;;;;;;;;5324531;28;20012;-71
2022/07/20 13:50:39;;;;;;;7.97;3.67;;;;;;;;;;5325128;28;20457;-71
2022/07/20 13:53:11;;;;;;;6.83;3.30;;;;;;;;;;5325395;28;20273;-70
2022/07/20 13:55:42;;;;;;;5.83;3.67;;;;;;;;;;5324132;28;20072;-70
2022/07/20 13:58:13;;;;;;;8.65;4.32;;;;;;;;;;5325447;28;20258;-72
2022/07/20 14:00:45;;;;;;;6.63;3.67;;;;;;;;;;5325172;28;20031;-71
2022/07/20 14:03:17;;;;;;;7.35;4.15;;;;;;;;;;5323982;28;20019;-73
2022/07/20 14:05:48;;;;;;;5.50;3.95;;;;;;;;;;5325077;28;20026;-72
2022/07/20 14:08:19;;;;;;;8.98;4.32;;;;;;;;;;5325047;28;20023;-72
2022/07/20 14:10:51;;;;;;;6.75;4.00;;;;;;;;;;5324617;28;20035;-71
2022/07/20 14:13:22;;;;;;;12.32;4.18;;;;;;;;;;5324484;28;20085;-71
2022/07/20 14:15:54;;;;;;;8.73;4.25;;;;;;;;;;5325017;28;20130;-71
2022/07/20 14:18:26;;;;;;;8.75;4.22;;;;;;;;;;5324127;28;20496;-71
2022/07/20 14:20:58;;;;;;;6.55;4.72;;;;;;;;;;5325170;28;20019;-71
2022/07/20 14:23:29;;;;;;;9.77;4.93;;;;;;;;;;5323438;28;20050;-71
2022/07/20 14:26:00;;;;;;;7.13;4.43;;;;;;;;;;5324525;28;20436;-70
2022/07/20 14:28:32;;;;;;;8.03;4.47;;;;;;;;;;5324440;28;20020;-70
2022/07/20 14:31:03;;;;;;;6.60;4.43;;;;;;;;;;5323658;28;20032;-71
2022/07/20 14:33:34;;;;;;;6.45;4.13;;;;;;;;;;5324423;28;20379;-71
2022/07/20 14:36:05;;;;;;;5.53;3.93;;;;;;;;;;5324841;28;20422;-72
2022/07/20 14:38:37;;;;;;;8.77;4.60;;;;;;;;;;5323644;28;20011;-71
2022/07/20 14:41:08;;;;;;;7.63;4.83;;;;;;;;;;5324210;28;20261;-72
2022/07/20 14:43:39;;;;;;;9.03;4.83;;;;;;;;;;5324234;28;20371;-72
2022/07/20 14:46:10;;;;;;;9.10;5.00;;;;;;;;;;5323582;28;20036;-72
2022/07/20 14:48:41;;;;;;;8.57;4.83;;;;;;;;;;5324320;28;20755;-72
2022/07/20 14:51:13;;;;;;;13.53;4.50;;;;;;;;;;5324176;28;20172;-71
2022/07/20 14:53:44;;;;;;;8.27;4.87;;;;;;;;;;5323775;28;20263;-72
2022/07/20 14:56:16;;;;;;;9.85;4.30;;;;;;;;;;5324500;28;20333;-72
2022/07/20 14:58:47;;;;;;;12.23;5.75;;;;;;;;;;5323122;28;20068;-72
2022/07/20 15:01:19;;;;;;;7.43;4.70;;;;;;;;;;5323776;28;20024;-72
2022/07/20 15:03:50;;;;;;;10.13;5.43;;;;;;;;;;5324199;28;20276;-73
2022/07/20 15:06:21;;;;;;;8.30;4.90;;;;;;;;;;5322736;28;20274;-72
2022/07/20 15:08:52;;;;;;;6.72;4.72;;;;;;;;;;5323623;28;20095;-72